Aviation Digital Data Service (ADDS)

Output produced by METARs form (1321 UTC 21 August 2019)
found at http://www.aviationweather.gov/metar/data/
 
Forecast for: TBPB (GRANTLEY ADAMS , BB)
Text: TAF TBPB 211100Z 2112/2212 05004KT 9999 SCT018
Forecast period: 1200 UTC 21 August 2019 to 1200 UTC 22 August 2019
Forecast type: FROM: standard forecast or significant change
Winds: from the NE (50 degrees) at 5 MPH (4 knots; 2.1 m/s)
Visibility: 6 or more miles 10+ km)
Ceiling: at least 12,000 feet AGL
Clouds: scattered clouds at 1800 feet AGL
Weather: no significant weather forecast for this period